createdAt,value
2018-09-05T00:01:22.123Z,95.69
2018-09-05T00:02:22.094Z,95.60
2018-09-05T00:04:15.429Z,95.40
2018-09-05T00:05:15.368Z,95.60
2018-09-05T00:07:08.675Z,95.50
2018-09-05T00:08:08.652Z,95.50
2018-09-05T00:10:01.992Z,96.22
2018-09-05T00:11:01.934Z,96.42
2018-09-05T00:12:55.266Z,96.22
2018-09-05T00:13:55.219Z,96.12
2018-09-05T00:15:48.521Z,96.22
2018-09-05T00:16:48.496Z,96.12
2018-09-05T00:18:41.821Z,96.80
2018-09-05T00:19:41.781Z,96.89
2018-09-05T00:21:35.084Z,97.57
2018-09-05T00:22:35.049Z,97.09
2018-09-05T00:24:28.366Z,97.19
2018-09-05T00:25:28.324Z,97.19
2018-09-05T00:27:21.169Z,97.19
2018-09-05T00:28:21.132Z,96.89
2018-09-05T00:30:14.476Z,97.19
2018-09-05T00:31:14.410Z,97.19
2018-09-05T00:33:07.739Z,97.67
2018-09-05T00:34:07.719Z,97.76
2018-09-05T00:36:01.030Z,97.19
2018-09-05T00:37:00.997Z,97.86
2018-09-05T00:38:54.305Z,97.76
2018-09-05T00:39:54.285Z,97.28
2018-09-05T00:41:47.595Z,97.57
2018-09-05T00:42:47.546Z,97.28
2018-09-05T00:44:40.385Z,97.96
2018-09-05T00:45:40.331Z,97.96
2018-09-05T00:47:33.665Z,98.05
2018-09-05T00:48:33.611Z,97.76
2018-09-05T00:50:26.940Z,98.24
2018-09-05T00:51:26.904Z,97.96
2018-09-05T00:53:20.211Z,98.63
2018-09-05T00:54:20.190Z,98.63
2018-09-05T00:56:13.025Z,98.14
2018-09-05T00:57:12.955Z,98.82
2018-09-05T00:59:06.267Z,98.92
2018-09-05T01:00:06.235Z,98.82
2018-09-05T01:01:59.582Z,98.82
2018-09-05T01:02:59.522Z,98.34
2018-09-05T01:04:52.342Z,98.63
2018-09-05T01:05:52.313Z,98.92
2018-09-05T01:07:45.138Z,99.30
2018-09-05T01:08:45.090Z,99.06
2018-09-05T01:10:37.915Z,99.30
2018-09-05T01:11:37.876Z,98.82
2018-09-05T01:13:31.193Z,98.54
2018-09-05T01:14:31.167Z,98.44
2018-09-05T01:16:24.473Z,98.82
2018-09-05T01:17:24.437Z,98.05
2018-09-05T01:19:17.238Z,97.71
2018-09-05T01:20:17.218Z,97.91
2018-09-05T01:22:10.032Z,98.58
2018-09-05T01:23:09.991Z,98.39
2018-09-05T01:25:02.833Z,98.58
2018-09-05T01:26:02.782Z,98.68
2018-09-05T01:27:56.107Z,98.49
2018-09-05T01:28:56.061Z,98.39
2018-09-05T01:30:49.372Z,98.96
2018-09-05T01:31:49.341Z,98.96
2018-09-05T01:33:42.667Z,98.77
2018-09-05T01:34:42.627Z,98.77
2018-09-05T01:36:35.943Z,97.91
2018-09-05T01:37:35.903Z,98.10
2018-09-05T01:39:29.723Z,98.10
2018-09-05T01:40:29.683Z,98.29
2018-09-05T01:42:23.002Z,97.81
2018-09-05T01:43:22.988Z,97.81
2018-09-05T01:45:16.282Z,97.81
2018-09-05T01:46:16.245Z,98.39
2018-09-05T01:48:09.570Z,98.10
2018-09-05T01:49:09.525Z,98.19
2018-09-05T01:51:02.347Z,97.81
2018-09-05T01:52:02.303Z,97.81
2018-09-05T01:53:55.627Z,97.62
2018-09-05T01:54:55.583Z,97.14
2018-09-05T01:56:48.893Z,97.14
2018-09-05T01:57:48.861Z,97.04
2018-09-05T01:59:42.184Z,97.71
2018-09-05T02:00:42.128Z,97.62
2018-09-05T02:02:34.943Z,97.71
2018-09-05T02:03:34.913Z,97.81
2018-09-05T02:05:28.244Z,97.91
2018-09-05T02:06:28.198Z,98.14
2018-09-05T02:08:21.074Z,98.19
2018-09-05T02:09:20.979Z,98.19
2018-09-05T02:11:14.314Z,97.91
2018-09-05T02:12:14.264Z,98.05
2018-09-05T02:14:07.584Z,98.00
2018-09-05T02:15:07.543Z,97.91
2018-09-05T02:17:00.841Z,98.10
2018-09-05T02:18:00.810Z,97.91
2018-09-05T02:19:54.150Z,98.00
2018-09-05T02:20:54.084Z,99.06
2018-09-05T02:22:47.396Z,98.58
2018-09-05T02:23:47.369Z,98.68
2018-09-05T02:25:40.199Z,98.58
2018-09-05T02:26:40.155Z,98.87
2018-09-05T02:28:32.956Z,98.77
2018-09-05T02:29:32.935Z,98.77
2018-09-05T02:31:26.269Z,98.49
2018-09-05T02:32:26.227Z,98.58
2018-09-05T02:34:19.046Z,98.39
2018-09-05T02:35:19.005Z,98.58
2018-09-05T02:37:12.316Z,97.81
2018-09-05T02:38:12.289Z,98.10
2018-09-05T02:40:05.597Z,98.00
2018-09-05T02:41:05.557Z,98.00
2018-09-05T02:42:58.373Z,98.29
2018-09-05T02:43:58.330Z,97.52
2018-09-05T02:45:51.159Z,98.19
2018-09-05T02:46:51.128Z,98.05
2018-09-05T02:48:44.425Z,98.29
2018-09-05T02:49:44.395Z,97.52
2018-09-05T02:51:37.250Z,97.86
2018-09-05T02:52:37.179Z,97.67
2018-09-05T02:54:30.479Z,97.76
2018-09-05T02:55:30.450Z,97.57
2018-09-05T02:57:23.783Z,97.42
2018-09-05T02:58:23.736Z,97.67
2018-09-05T03:00:17.054Z,97.67
2018-09-05T03:01:17.005Z,97.81
2018-09-05T03:03:10.321Z,98.14
2018-09-05T03:04:10.281Z,98.14
2018-09-05T03:06:03.596Z,98.14
2018-09-05T03:07:03.550Z,98.05
2018-09-05T03:08:56.870Z,98.05
2018-09-05T03:09:56.836Z,98.19
2018-09-05T03:11:50.162Z,98.14
2018-09-05T03:12:50.115Z,98.29
2018-09-05T03:14:43.427Z,98.39
2018-09-05T03:15:43.390Z,98.19
2018-09-05T03:17:36.724Z,98.14
2018-09-05T03:18:36.676Z,98.19
2018-09-05T03:20:29.982Z,98.10
2018-09-05T03:21:29.961Z,98.19
2018-09-05T03:23:23.329Z,98.19
2018-09-05T03:24:23.227Z,98.39
2018-09-05T03:26:16.050Z,98.39
2018-09-05T03:27:16.031Z,98.29
2018-09-05T03:29:08.849Z,97.81
2018-09-05T03:30:08.804Z,97.52
2018-09-05T03:32:02.108Z,97.52
2018-09-05T03:33:02.139Z,97.71
2018-09-05T03:34:54.924Z,97.91
2018-09-05T03:35:54.862Z,97.81
2018-09-05T03:37:47.697Z,97.91
2018-09-05T03:38:47.644Z,97.81
2018-09-05T03:40:40.963Z,97.62
2018-09-05T03:41:40.923Z,97.81
2018-09-05T03:43:34.258Z,98.39
2018-09-05T03:44:34.215Z,98.39
2018-09-05T03:46:27.527Z,98.00
2018-09-05T03:47:27.488Z,98.29
2018-09-05T03:49:20.822Z,98.10
2018-09-05T03:50:20.773Z,98.19
2018-09-05T03:52:15.158Z,98.19
2018-09-05T03:53:15.059Z,98.29
2018-09-05T03:55:08.394Z,98.10
2018-09-05T03:56:08.339Z,98.10
2018-09-05T03:58:01.674Z,98.10
2018-09-05T03:59:01.628Z,98.29
2018-09-05T04:00:54.943Z,98.19
2018-09-05T04:01:54.902Z,98.29
2018-09-05T04:03:48.229Z,98.10
2018-09-05T04:04:48.187Z,98.10
2018-09-05T04:06:41.499Z,98.10
2018-09-05T04:07:41.463Z,98.10
2018-09-05T04:09:34.317Z,98.19
2018-09-05T04:10:34.250Z,98.58
2018-09-05T04:12:27.055Z,98.19
2018-09-05T04:13:27.028Z,97.71
2018-09-05T04:15:19.859Z,97.71
2018-09-05T04:16:19.824Z,97.91
2018-09-05T04:18:12.629Z,97.81
2018-09-05T04:19:12.594Z,97.62
2018-09-05T04:21:05.920Z,97.81
2018-09-05T04:22:05.908Z,97.71
2018-09-05T04:23:59.236Z,97.52
2018-09-05T04:24:59.196Z,98.19
2018-09-05T04:26:52.499Z,97.52
2018-09-05T04:27:52.480Z,97.71
2018-09-05T04:29:45.312Z,97.71
2018-09-05T04:30:45.235Z,97.81
2018-09-05T04:32:38.059Z,97.52
2018-09-05T04:33:38.029Z,97.71
2018-09-05T04:35:30.858Z,97.52
2018-09-05T04:36:30.817Z,97.57
2018-09-05T04:38:23.616Z,97.57
2018-09-05T04:39:23.582Z,97.76
2018-09-05T04:41:16.911Z,97.86
2018-09-05T04:42:16.871Z,97.71
2018-09-05T04:44:09.684Z,97.47
2018-09-05T04:45:09.685Z,97.86
2018-09-05T04:47:02.971Z,97.57
2018-09-05T04:48:02.922Z,97.86
2018-09-05T04:49:55.746Z,97.86
2018-09-05T04:50:55.710Z,97.67
2018-09-05T04:52:48.622Z,97.67
2018-09-05T04:53:48.491Z,97.67
2018-09-05T04:55:41.311Z,97.47
2018-09-05T04:56:41.276Z,97.47
2018-09-05T04:58:34.183Z,96.90
2018-09-05T04:59:34.046Z,96.99
2018-09-05T05:01:26.880Z,96.90
2018-09-05T05:02:26.823Z,96.99
2018-09-05T05:04:20.140Z,96.99
2018-09-05T05:05:20.120Z,97.09
2018-09-05T05:07:13.426Z,96.80
2018-09-05T05:08:13.378Z,96.99
2018-09-05T05:10:06.687Z,97.38
2018-09-05T05:11:06.656Z,97.19
2018-09-05T05:12:59.489Z,97.38
2018-09-05T05:13:59.431Z,96.99
2018-09-05T05:15:52.262Z,97.47
2018-09-05T05:16:52.216Z,97.28
2018-09-05T05:18:45.036Z,96.90
2018-09-05T05:19:45.013Z,96.99
2018-09-05T05:21:37.842Z,96.99
2018-09-05T05:22:37.780Z,97.14
2018-09-05T05:24:31.087Z,96.99
2018-09-05T05:25:31.052Z,97.09
2018-09-05T05:27:23.881Z,97.42
2018-09-05T05:28:23.827Z,96.94
2018-09-05T05:30:16.646Z,96.99
2018-09-05T05:31:16.618Z,97.04
2018-09-05T05:33:09.938Z,97.04
2018-09-05T05:34:09.894Z,96.94
2018-09-05T05:36:03.212Z,96.85
2018-09-05T05:37:03.161Z,96.94
2018-09-05T05:38:56.484Z,97.04
2018-09-05T05:39:56.447Z,96.94
2018-09-05T05:41:49.272Z,97.04
2018-09-05T05:42:49.218Z,97.33
2018-09-05T05:44:42.029Z,96.94
2018-09-05T05:45:41.998Z,96.75
2018-09-05T05:47:34.835Z,96.80
2018-09-05T05:48:34.783Z,97.09
2018-09-05T05:50:27.598Z,96.99
2018-09-05T05:51:27.576Z,96.12
2018-09-05T05:53:20.905Z,96.12
2018-09-05T05:54:20.853Z,96.22
2018-09-05T05:56:13.664Z,96.42
2018-09-05T05:57:13.638Z,96.12
2018-09-05T05:59:06.476Z,95.45
2018-09-05T06:00:06.418Z,96.03
2018-09-05T06:01:59.229Z,95.94
2018-09-05T06:02:59.200Z,95.94
2018-09-05T06:04:52.525Z,95.65
2018-09-05T06:05:52.509Z,95.55
2018-09-05T06:07:45.805Z,95.65
2018-09-05T06:08:45.763Z,95.40
2018-09-05T06:10:38.591Z,95.07
2018-09-05T06:11:38.554Z,95.12
2018-09-05T06:13:31.879Z,95.50
2018-09-05T06:14:31.839Z,95.21
2018-09-05T06:16:24.656Z,95.21
2018-09-05T06:17:24.625Z,95.50
2018-09-05T06:19:17.449Z,94.92
2018-09-05T06:20:17.406Z,94.82
2018-09-05T06:22:10.758Z,94.92
2018-09-05T06:23:10.711Z,94.92
2018-09-05T06:25:04.035Z,94.49
2018-09-05T06:26:03.990Z,94.59
2018-09-05T06:27:57.324Z,94.10
2018-09-05T06:28:57.279Z,94.01
2018-09-05T06:30:50.649Z,94.49
2018-09-05T06:31:50.539Z,94.59
2018-09-05T06:33:43.945Z,94.39
2018-09-05T06:34:43.826Z,93.43
2018-09-05T06:36:37.152Z,93.62
2018-09-05T06:37:37.122Z,93.91
2018-09-05T06:39:30.435Z,93.14
2018-09-05T06:40:30.388Z,93.52
2018-09-05T06:42:23.697Z,92.90
2018-09-05T06:43:23.664Z,92.76
2018-09-05T06:45:16.528Z,92.85
2018-09-05T06:46:16.451Z,93.14
2018-09-05T06:48:09.266Z,92.47
2018-09-05T06:49:09.231Z,92.56
2018-09-05T06:51:02.562Z,92.51
2018-09-05T06:52:02.518Z,91.64
2018-09-05T06:53:55.328Z,91.55
2018-09-05T06:54:55.290Z,91.45
2018-09-05T06:56:48.617Z,91.74
2018-09-05T06:57:48.633Z,91.83
2018-09-05T06:59:41.893Z,91.45
2018-09-05T07:00:41.860Z,91.16
2018-09-05T07:02:35.192Z,91.26
2018-09-05T07:03:35.221Z,91.02
2018-09-05T07:05:27.976Z,90.82
2018-09-05T07:06:27.933Z,90.82
2018-09-05T07:08:20.753Z,90.63
2018-09-05T07:09:20.706Z,90.63
2018-09-05T07:11:14.556Z,90.24
2018-09-05T07:12:14.493Z,90.44
2018-09-05T07:14:07.825Z,90.53
2018-09-05T07:15:07.777Z,89.57
2018-09-05T07:17:01.098Z,89.57
2018-09-05T07:18:01.054Z,89.32
2018-09-05T07:19:53.878Z,89.51
2018-09-05T07:21:05.681Z,89.23
2018-09-05T07:22:47.181Z,89.13
2018-09-05T07:23:47.131Z,88.36
2018-09-05T07:25:40.446Z,88.75
2018-09-05T07:26:40.415Z,88.17
2018-09-05T07:28:33.233Z,88.65
2018-09-05T07:29:33.188Z,88.93
2018-09-05T07:31:26.520Z,88.11
2018-09-05T07:32:26.473Z,88.40
2018-09-05T07:34:19.811Z,88.31
2018-09-05T07:35:19.763Z,87.63
2018-09-05T07:37:12.596Z,87.63
2018-09-05T07:38:12.566Z,87.92
2018-09-05T07:40:05.884Z,87.82
2018-09-05T07:41:05.853Z,87.53
2018-09-05T07:42:58.693Z,87.67
2018-09-05T07:43:58.635Z,87.58
2018-09-05T07:45:51.941Z,87.19
2018-09-05T07:46:51.920Z,86.61
2018-09-05T07:48:44.747Z,87.29
2018-09-05T07:49:44.701Z,86.90
2018-09-05T07:51:37.517Z,86.61
2018-09-05T07:52:37.488Z,86.90
2018-09-05T07:54:30.813Z,84.88
2018-09-05T07:55:30.773Z,85.84
2018-09-05T07:57:23.621Z,85.74
2018-09-05T07:58:23.554Z,86.13
2018-09-05T08:00:16.403Z,85.16
2018-09-05T08:01:16.347Z,85.21
2018-09-05T08:03:09.172Z,85.06
2018-09-05T08:04:09.138Z,84.53
2018-09-05T08:06:01.957Z,85.06
2018-09-05T08:07:01.918Z,84.88
2018-09-05T08:08:54.760Z,84.14
2018-09-05T08:09:54.705Z,84.53
2018-09-05T08:11:48.063Z,84.14
2018-09-05T08:12:47.998Z,84.24
2018-09-05T08:14:40.829Z,83.66
2018-09-05T08:15:40.773Z,84.05
2018-09-05T08:17:34.099Z,83.56
2018-09-05T08:18:34.059Z,83.56
2018-09-05T08:20:27.399Z,83.08
2018-09-05T08:21:27.348Z,83.18
2018-09-05T08:23:20.668Z,82.98
2018-09-05T08:24:20.759Z,83.61
2018-09-05T08:26:13.463Z,81.09
2018-09-05T08:27:13.425Z,81.96
2018-09-05T08:29:06.810Z,82.35
2018-09-05T08:30:06.765Z,83.03
2018-09-05T08:31:59.548Z,82.15
2018-09-05T08:32:59.495Z,81.62
2018-09-05T08:34:53.017Z,79.78
2018-09-05T08:35:53.177Z,79.49
2018-09-05T08:37:46.151Z,79.97
2018-09-05T08:38:46.116Z,79.78
2018-09-05T08:40:39.389Z,79.58
2018-09-05T08:41:39.432Z,79.78
2018-09-05T08:43:32.671Z,78.94
2018-09-05T08:44:32.718Z,78.94
2018-09-05T08:46:26.048Z,79.14
2018-09-05T08:47:26.059Z,79.04
2018-09-05T08:49:18.757Z,78.46
2018-09-05T08:50:18.726Z,77.50
2018-09-05T08:52:12.052Z,76.33
2018-09-05T08:53:12.007Z,76.62
2018-09-05T08:55:04.927Z,77.63
2018-09-05T08:56:04.798Z,76.46
2018-09-05T08:57:57.646Z,75.92
2018-09-05T08:58:57.651Z,75.63
2018-09-05T09:00:50.916Z,75.15
2018-09-05T09:01:50.876Z,75.34
2018-09-05T09:03:43.694Z,74.38
2018-09-05T09:04:43.774Z,74.28
2018-09-05T09:06:36.506Z,75.54
2018-09-05T09:07:36.467Z,73.89
2018-09-05T09:09:29.285Z,72.83
2018-09-05T09:10:29.242Z,73.21
2018-09-05T09:12:22.572Z,72.34
2018-09-05T09:13:22.533Z,72.96
2018-09-05T09:15:15.861Z,73.05
2018-09-05T09:16:15.833Z,71.89
2018-09-05T09:18:08.663Z,72.09
2018-09-05T09:19:08.616Z,71.70
2018-09-05T09:21:01.946Z,70.34
2018-09-05T09:22:01.919Z,70.15
2018-09-05T09:23:55.237Z,71.12
2018-09-05T09:24:55.197Z,69.89
2018-09-05T09:26:48.046Z,69.79
2018-09-05T09:27:47.984Z,69.31
2018-09-05T09:29:40.829Z,69.60
2018-09-05T09:30:40.796Z,69.99
2018-09-05T09:32:34.111Z,69.70
2018-09-05T09:33:34.079Z,69.99
2018-09-05T09:35:26.912Z,69.21
2018-09-05T09:36:26.859Z,69.60
2018-09-05T09:38:19.707Z,69.64
2018-09-05T09:39:19.663Z,68.66
2018-09-05T09:41:12.486Z,66.72
2018-09-05T09:42:12.453Z,67.40
2018-09-05T09:44:05.294Z,67.11
2018-09-05T09:45:05.252Z,66.05
2018-09-05T09:46:58.092Z,65.56
2018-09-05T09:47:58.038Z,65.59
2018-09-05T09:49:50.878Z,65.30
2018-09-05T09:50:50.839Z,66.56
2018-09-05T09:52:43.668Z,65.40
2018-09-05T09:53:43.648Z,64.62
2018-09-05T09:55:36.968Z,64.17
2018-09-05T09:56:36.984Z,63.29
2018-09-05T09:58:29.764Z,63.10
2018-09-05T09:59:29.719Z,62.42
2018-09-05T10:01:22.549Z,62.81
2018-09-05T10:02:22.518Z,62.04
2018-09-05T10:04:15.843Z,61.25
2018-09-05T10:05:15.840Z,61.55
2018-09-05T10:07:08.687Z,62.13
2018-09-05T10:08:08.603Z,62.52
2018-09-05T10:10:02.192Z,63.20
2018-09-05T10:11:01.902Z,62.71
2018-09-05T10:12:54.754Z,61.74
2018-09-05T10:13:54.715Z,62.52
2018-09-05T10:15:47.559Z,61.74
2018-09-05T10:16:47.520Z,61.68
2018-09-05T10:18:40.338Z,61.55
2018-09-05T10:19:40.306Z,61.65
2018-09-05T10:21:33.140Z,61.45
2018-09-05T10:22:33.167Z,61.45
2018-09-05T10:24:25.934Z,61.45
2018-09-05T10:25:25.908Z,61.48
2018-09-05T10:27:18.741Z,61.77
2018-09-05T10:28:18.700Z,61.09
2018-09-05T10:30:12.032Z,60.41
2018-09-05T10:31:11.998Z,60.80
2018-09-05T10:33:04.829Z,60.51
2018-09-05T10:34:04.805Z,60.90
2018-09-05T10:35:57.629Z,60.90
2018-09-05T10:36:57.599Z,59.95
2018-09-05T10:38:50.411Z,59.86
2018-09-05T10:39:50.385Z,59.47
2018-09-05T10:41:43.225Z,59.76
2018-09-05T10:42:43.177Z,59.89
2018-09-05T10:44:36.005Z,58.72
2018-09-05T10:45:35.974Z,59.99
2018-09-05T10:47:28.817Z,60.57
2018-09-05T10:48:28.804Z,60.67
2018-09-05T10:50:21.624Z,60.57
2018-09-05T10:51:21.594Z,60.57
2018-09-05T10:53:14.425Z,60.18
2018-09-05T10:54:14.379Z,60.38
2018-09-05T10:56:07.228Z,59.38
2018-09-05T10:57:07.180Z,59.95
2018-09-05T10:59:00.007Z,59.59
2018-09-05T10:59:59.977Z,59.01
2018-09-05T11:01:53.312Z,58.72
2018-09-05T11:02:53.289Z,59.21
2018-09-05T11:04:46.101Z,58.72
2018-09-05T11:05:46.080Z,58.82
2018-09-05T11:07:38.911Z,58.59
2018-09-05T11:08:38.865Z,58.50
2018-09-05T11:10:31.764Z,58.53
2018-09-05T11:11:31.675Z,58.23
2018-09-05T11:13:25.002Z,57.07
2018-09-05T11:14:24.951Z,57.56
2018-09-05T11:16:18.281Z,57.00
2018-09-05T11:17:18.246Z,56.71
2018-09-05T11:19:11.596Z,56.41
2018-09-05T11:20:11.552Z,56.71
2018-09-05T11:22:04.886Z,56.41
2018-09-05T11:23:04.850Z,56.51
2018-09-05T11:24:58.163Z,55.66
2018-09-05T11:25:58.148Z,54.99
2018-09-05T11:27:51.496Z,55.18
2018-09-05T11:28:51.446Z,56.15
2018-09-05T11:30:44.756Z,56.67
2018-09-05T11:31:44.742Z,55.99
2018-09-05T11:33:38.072Z,56.27
2018-09-05T11:34:38.022Z,55.50
2018-09-05T11:36:31.350Z,54.52
2018-09-05T11:37:31.322Z,55.01
2018-09-05T11:39:24.168Z,54.33
2018-09-05T11:40:24.128Z,53.87
2018-09-05T11:42:17.480Z,54.16
2018-09-05T11:43:17.443Z,53.77
2018-09-05T11:45:10.762Z,54.09
2018-09-05T11:46:10.727Z,52.92
2018-09-05T11:48:03.588Z,52.44
2018-09-05T11:49:03.530Z,51.26
2018-09-05T11:50:56.853Z,51.48
2018-09-05T11:51:56.814Z,50.82
2018-09-05T11:53:50.162Z,50.68
2018-09-05T11:54:50.131Z,49.51
2018-09-05T11:56:43.472Z,48.58
2018-09-05T11:57:43.450Z,47.63
2018-09-05T11:59:36.286Z,47.31
2018-09-05T12:00:36.243Z,47.60
2018-09-05T12:02:29.083Z,47.60
2018-09-05T12:03:29.062Z,47.41
2018-09-05T12:05:21.897Z,47.14
2018-09-05T12:06:21.862Z,47.63
2018-09-05T12:08:15.209Z,47.14
2018-09-05T12:09:15.162Z,46.94
2018-09-05T12:11:08.013Z,47.65
2018-09-05T12:12:08.037Z,46.08
2018-09-05T12:14:01.304Z,45.73
2018-09-05T12:15:01.296Z,45.25
2018-09-05T12:16:54.119Z,44.19
2018-09-05T12:17:54.092Z,45.37
2018-09-05T12:19:47.442Z,45.73
2018-09-05T12:20:47.392Z,45.83
2018-09-05T12:22:40.754Z,45.52
2018-09-05T12:23:40.727Z,44.95
2018-09-05T12:25:34.063Z,43.80
2018-09-05T12:26:34.037Z,44.68
2018-09-05T12:28:26.892Z,46.05
2018-09-05T12:29:26.848Z,45.76
2018-09-05T12:31:20.174Z,45.37
2018-09-05T12:32:20.145Z,45.27
2018-09-05T12:34:13.475Z,43.70
2018-09-05T12:35:13.444Z,43.51
2018-09-05T12:37:06.793Z,45.44
2018-09-05T12:38:06.765Z,43.98
2018-09-05T12:40:00.098Z,43.37
2018-09-05T12:41:00.053Z,43.58
2018-09-05T12:42:53.408Z,43.76
2018-09-05T12:43:53.371Z,43.73
2018-09-05T12:45:46.710Z,43.44
2018-09-05T12:46:46.674Z,43.44
2018-09-05T12:48:39.989Z,43.42
2018-09-05T12:49:39.969Z,43.91
2018-09-05T12:51:33.329Z,44.79
2018-09-05T12:52:33.289Z,44.81
2018-09-05T12:54:26.615Z,43.73
2018-09-05T12:55:26.588Z,43.93
2018-09-05T12:57:19.929Z,45.18
2018-09-05T12:58:19.895Z,45.36
2018-09-05T13:00:13.216Z,44.98
2018-09-05T13:01:13.203Z,45.37
2018-09-05T13:03:06.522Z,43.34
2018-09-05T13:04:06.494Z,43.34
2018-09-05T13:05:59.819Z,43.91
2018-09-05T13:06:59.797Z,43.73
2018-09-05T13:08:53.141Z,43.42
2018-09-05T13:09:53.091Z,43.34
2018-09-05T13:11:46.436Z,42.32
2018-09-05T13:12:46.396Z,43.52
2018-09-05T13:14:39.726Z,42.56
2018-09-05T13:15:39.695Z,42.36
2018-09-05T13:17:33.035Z,40.80
2018-09-05T13:18:33.005Z,40.82
2018-09-05T13:20:26.356Z,40.94
2018-09-05T13:21:26.306Z,40.35
2018-09-05T13:23:19.680Z,40.94
2018-09-05T13:24:19.692Z,41.15
2018-09-05T13:26:12.978Z,40.17
2018-09-05T13:27:12.947Z,40.45
2018-09-05T13:29:06.313Z,41.02
2018-09-05T13:30:06.260Z,41.02
2018-09-05T13:31:59.592Z,41.00
2018-09-05T13:32:59.570Z,40.92
2018-09-05T13:34:52.902Z,40.82
2018-09-05T13:35:52.876Z,41.21
2018-09-05T13:37:46.208Z,42.07
2018-09-05T13:38:46.181Z,41.88
2018-09-05T13:40:39.533Z,41.96
2018-09-05T13:41:39.492Z,41.96
2018-09-05T13:43:32.320Z,41.74
2018-09-05T13:44:32.292Z,41.74
2018-09-05T13:46:25.621Z,41.07
2018-09-05T13:47:25.589Z,41.19
2018-09-05T13:49:18.917Z,40.80
2018-09-05T13:50:18.896Z,40.21
2018-09-05T13:52:12.236Z,40.00
2018-09-05T13:53:12.191Z,40.41
2018-09-05T13:55:05.049Z,40.21
2018-09-05T13:56:05.016Z,39.25
2018-09-05T13:57:58.339Z,39.14
2018-09-05T13:58:58.316Z,39.04
2018-09-05T14:00:51.667Z,38.55
2018-09-05T14:01:51.623Z,38.55
2018-09-05T14:03:44.958Z,39.92
2018-09-05T14:04:44.936Z,40.33
2018-09-05T14:06:38.282Z,39.06
2018-09-05T14:07:38.244Z,39.37
2018-09-05T14:09:31.558Z,38.37
2018-09-05T14:10:31.538Z,39.35
2018-09-05T14:12:24.873Z,40.43
2018-09-05T14:13:24.909Z,40.03
2018-09-05T14:15:18.164Z,40.60
2018-09-05T14:16:18.142Z,39.92
2018-09-05T14:18:11.476Z,39.47
2018-09-05T14:19:11.449Z,39.47
2018-09-05T14:21:04.788Z,39.45
2018-09-05T14:22:04.758Z,40.01
2018-09-05T14:23:58.092Z,39.54
2018-09-05T14:24:58.075Z,39.47
2018-09-05T14:26:51.398Z,38.78
2018-09-05T14:27:51.374Z,38.78
2018-09-05T14:29:44.698Z,38.67
2018-09-05T14:30:44.679Z,39.23
2018-09-05T14:32:38.024Z,39.82
2018-09-05T14:33:37.989Z,39.41
2018-09-05T14:35:30.818Z,39.14
2018-09-05T14:36:30.799Z,39.14
2018-09-05T14:38:24.143Z,39.33
2018-09-05T14:39:24.098Z,39.82
2018-09-05T14:41:17.434Z,38.96
2018-09-05T14:42:17.406Z,37.90
2018-09-05T14:44:10.747Z,38.37
2018-09-05T14:45:10.709Z,38.57
2018-09-05T14:47:04.038Z,38.65
2018-09-05T14:48:04.069Z,39.04
2018-09-05T14:49:57.346Z,40.17
2018-09-05T14:50:57.315Z,40.84
2018-09-05T14:52:50.659Z,40.86
2018-09-05T14:53:50.622Z,40.66
2018-09-05T14:55:43.945Z,39.80
2018-09-05T14:56:43.915Z,40.00
2018-09-05T14:58:37.274Z,39.61
2018-09-05T14:59:37.219Z,39.43
2018-09-05T15:01:30.539Z,38.86
2018-09-05T15:02:30.525Z,38.67
2018-09-05T15:04:23.875Z,38.67
2018-09-05T15:05:23.839Z,38.28
2018-09-05T15:07:17.164Z,39.33
2018-09-05T15:08:17.141Z,39.53
2018-09-05T15:10:10.477Z,39.12
2018-09-05T15:11:10.445Z,39.80
2018-09-05T15:13:03.785Z,40.14
2018-09-05T15:14:03.745Z,40.63
2018-09-05T15:15:57.061Z,40.92
2018-09-05T15:16:57.041Z,41.41
2018-09-05T15:18:50.371Z,41.50
2018-09-05T15:19:50.337Z,40.94
2018-09-05T15:21:43.660Z,40.94
2018-09-05T15:22:43.640Z,40.74
2018-09-05T15:24:36.965Z,40.92
2018-09-05T15:25:36.978Z,41.31
2018-09-05T15:27:30.280Z,41.48
2018-09-05T15:28:30.234Z,41.19
2018-09-05T15:30:23.575Z,40.89
2018-09-05T15:31:23.544Z,41.41
2018-09-05T15:33:16.384Z,41.87
2018-09-05T15:34:16.331Z,42.05
2018-09-05T15:36:09.175Z,43.02
2018-09-05T15:37:09.137Z,43.00
2018-09-05T15:39:02.591Z,43.22
2018-09-05T15:40:02.432Z,43.12
2018-09-05T15:41:55.953Z,42.63
2018-09-05T15:42:55.936Z,43.12
2018-09-05T15:44:49.263Z,43.22
2018-09-05T15:45:49.228Z,43.12
2018-09-05T15:47:42.557Z,43.29
2018-09-05T15:48:42.521Z,43.59
2018-09-05T15:50:35.841Z,44.05
2018-09-05T15:51:35.814Z,44.24
2018-09-05T15:53:29.145Z,44.15
2018-09-05T15:54:29.101Z,44.64
2018-09-05T15:56:22.474Z,45.03
2018-09-05T15:57:22.439Z,45.20
2018-09-05T15:59:15.742Z,45.32
2018-09-05T16:00:15.709Z,45.39
2018-09-05T16:02:09.048Z,45.59
2018-09-05T16:03:09.007Z,45.78
2018-09-05T16:05:02.342Z,45.98
2018-09-05T16:06:02.302Z,46.17
2018-09-05T16:07:55.643Z,45.86
2018-09-05T16:08:55.601Z,46.64
2018-09-05T16:10:48.934Z,47.52
2018-09-05T16:11:48.896Z,47.32
2018-09-05T16:13:42.248Z,47.42
2018-09-05T16:14:42.211Z,47.52
2018-09-05T16:16:35.562Z,47.30
2018-09-05T16:17:35.518Z,47.39
2018-09-05T16:19:28.840Z,48.27
2018-09-05T16:20:28.813Z,47.98
2018-09-05T16:22:22.142Z,48.17
2018-09-05T16:23:22.104Z,48.27
2018-09-05T16:25:14.919Z,48.46
2018-09-05T16:26:14.901Z,48.27
2018-09-05T16:28:08.232Z,48.05
2018-09-05T16:29:08.184Z,47.78
2018-09-05T16:31:01.007Z,48.17
2018-09-05T16:32:00.979Z,48.15
2018-09-05T16:33:53.813Z,48.17
2018-09-05T16:34:53.777Z,48.34
2018-09-05T16:36:47.099Z,48.05
2018-09-05T16:37:47.070Z,48.05
2018-09-05T16:39:40.405Z,49.02
2018-09-05T16:40:40.365Z,48.93
2018-09-05T16:42:33.200Z,49.02
2018-09-05T16:43:33.158Z,48.54
2018-09-05T16:45:25.993Z,48.73
2018-09-05T16:46:25.963Z,49.78
2018-09-05T16:48:19.289Z,48.80
2018-09-05T16:49:19.270Z,48.71
2018-09-05T16:51:12.088Z,49.39
2018-09-05T16:52:12.059Z,49.10
2018-09-05T16:54:05.392Z,49.29
2018-09-05T16:55:05.344Z,49.97
2018-09-05T16:56:58.174Z,52.11
2018-09-05T16:57:58.136Z,52.11
2018-09-05T16:59:51.473Z,49.78
2018-09-05T17:00:51.487Z,50.36
2018-09-05T17:02:44.248Z,52.28
2018-09-05T17:03:44.219Z,52.28
2018-09-05T17:05:37.559Z,52.76
2018-09-05T17:06:37.510Z,52.86
2018-09-05T17:08:30.858Z,53.71
2018-09-05T17:09:30.820Z,54.00
2018-09-05T17:11:24.144Z,54.88
2018-09-05T17:12:24.115Z,55.63
2018-09-05T17:14:16.968Z,56.70
2018-09-05T17:15:16.916Z,57.83
2018-09-05T17:17:10.219Z,59.19
2018-09-05T17:18:10.205Z,59.09
2018-09-05T17:20:04.534Z,59.58
2018-09-05T17:21:04.480Z,59.77
2018-09-05T17:22:57.302Z,60.42
2018-09-05T17:23:57.288Z,61.00
2018-09-05T17:25:50.106Z,61.00
2018-09-05T17:26:50.073Z,62.16
2018-09-05T17:28:43.402Z,62.75
2018-09-05T17:29:43.361Z,62.55
2018-09-05T17:31:36.695Z,63.43
2018-09-05T17:32:36.650Z,63.23
2018-09-05T17:34:29.972Z,63.78
2018-09-05T17:35:29.946Z,63.98
2018-09-05T17:37:23.278Z,64.37
2018-09-05T17:38:23.390Z,64.56
2018-09-05T17:40:16.591Z,65.63
2018-09-05T17:41:16.545Z,66.60
2018-09-05T17:43:09.384Z,67.63
2018-09-05T17:44:09.339Z,68.89
2018-09-05T17:46:02.687Z,69.67
2018-09-05T17:47:02.631Z,69.34
2018-09-05T17:48:55.947Z,69.73
2018-09-05T17:49:55.923Z,70.11
2018-09-05T17:51:49.242Z,69.92
2018-09-05T17:52:49.200Z,70.11
2018-09-05T17:54:42.036Z,69.24
2018-09-05T17:55:41.988Z,69.05
2018-09-05T17:57:34.832Z,67.98
2018-09-05T17:58:34.798Z,67.50
2018-09-05T18:00:27.607Z,68.08
2018-09-05T18:01:27.588Z,68.08
2018-09-05T18:03:20.423Z,68.18
2018-09-05T18:04:20.374Z,67.50
2018-09-05T18:06:13.706Z,67.95
2018-09-05T18:07:13.671Z,67.98
2018-09-05T18:09:06.987Z,68.24
2018-09-05T18:10:06.958Z,67.85
2018-09-05T18:12:00.288Z,68.82
2018-09-05T18:13:00.238Z,68.63
2018-09-05T18:14:53.076Z,68.88
2018-09-05T18:15:53.036Z,69.08
2018-09-05T18:17:46.367Z,69.56
2018-09-05T18:18:46.318Z,69.66
2018-09-05T18:20:39.146Z,69.37
2018-09-05T18:21:39.117Z,69.37
2018-09-05T18:23:32.448Z,69.56
2018-09-05T18:24:32.443Z,69.66
2018-09-05T18:26:25.709Z,70.04
2018-09-05T18:27:25.682Z,69.95
2018-09-05T18:29:19.003Z,70.53
2018-09-05T18:30:18.957Z,71.20
2018-09-05T18:32:12.302Z,71.01
2018-09-05T18:33:12.263Z,71.01
2018-09-05T18:35:05.078Z,72.08